createdAt,value
2023-05-16T00:00:19.823Z,0
2023-05-16T00:05:19.895Z,0
2023-05-16T00:10:19.853Z,0
2023-05-16T00:15:16.821Z,0
2023-05-16T00:20:16.847Z,0
2023-05-16T00:25:19.831Z,0
2023-05-16T00:30:16.895Z,0
2023-05-16T00:35:16.894Z,0
2023-05-16T00:40:16.874Z,0
2023-05-16T00:45:19.933Z,0
2023-05-16T00:50:19.842Z,0
2023-05-16T00:55:16.721Z,0
2023-05-16T01:00:19.947Z,0
2023-05-16T01:05:19.934Z,0
2023-05-16T01:10:19.860Z,0
2023-05-16T01:15:19.806Z,0
2023-05-16T01:20:16.923Z,0
2023-05-16T01:25:16.835Z,0
2023-05-16T01:30:16.916Z,0
2023-05-16T01:35:16.899Z,0
2023-05-16T01:40:16.866Z,0
2023-05-16T01:45:19.886Z,0
2023-05-16T01:50:19.858Z,0
2023-05-16T01:55:19.826Z,0
2023-05-16T02:00:19.866Z,0
2023-05-16T02:05:19.845Z,0
2023-05-16T02:10:19.854Z,0
2023-05-16T02:15:16.829Z,0
2023-05-16T02:20:19.914Z,0
2023-05-16T02:25:19.854Z,0
2023-05-16T02:30:16.963Z,0
2023-05-16T02:35:16.895Z,0
2023-05-16T02:40:16.930Z,0
2023-05-16T02:45:16.875Z,0
2023-05-16T02:50:16.690Z,0
2023-05-16T02:55:34.977Z,0
2023-05-16T03:00:19.972Z,0
2023-05-16T03:05:19.861Z,0
2023-05-16T03:10:19.971Z,0
2023-05-16T03:15:19.894Z,0
2023-05-16T03:20:19.927Z,0
2023-05-16T03:25:19.862Z,0
2023-05-16T03:30:19.941Z,0
2023-05-16T03:35:16.818Z,0
2023-05-16T03:40:19.974Z,0
2023-05-16T03:45:19.948Z,0
2023-05-16T03:50:19.911Z,0
2023-05-16T03:55:19.897Z,0
2023-05-16T04:00:19.178Z,0
2023-05-16T04:05:19.183Z,0
2023-05-16T04:10:19.170Z,0
2023-05-16T04:15:19.214Z,0
2023-05-16T04:20:19.151Z,0
2023-05-16T04:25:16.214Z,0
2023-05-16T04:30:16.177Z,0
2023-05-16T04:35:16.172Z,0
2023-05-16T04:40:16.205Z,0
2023-05-16T04:45:19.412Z,0
2023-05-16T04:50:19.177Z,0
2023-05-16T04:55:19.151Z,0
2023-05-16T05:00:19.159Z,0
2023-05-16T05:05:16.297Z,0
2023-05-16T05:10:19.303Z,0
2023-05-16T05:15:19.262Z,0
2023-05-16T05:20:19.177Z,0
2023-05-16T05:25:19.211Z,0
2023-05-16T05:30:19.168Z,0
2023-05-16T05:35:19.171Z,0
2023-05-16T05:40:19.179Z,0
2023-05-16T05:45:19.196Z,0
2023-05-16T05:50:19.185Z,0
2023-05-16T05:55:19.211Z,0
2023-05-16T06:00:19.201Z,0
2023-05-16T06:05:19.253Z,0
2023-05-16T06:10:19.217Z,0
2023-05-16T06:15:19.219Z,0
2023-05-16T06:20:16.342Z,0
2023-05-16T06:25:19.246Z,0
2023-05-16T06:30:16.277Z,0
2023-05-16T06:35:16.240Z,0
2023-05-16T06:40:16.245Z,0
2023-05-16T06:45:16.270Z,0
2023-05-16T06:50:19.250Z,0
2023-05-16T06:55:16.309Z,0
2023-05-16T07:00:19.392Z,0
2023-05-16T07:05:16.342Z,0
2023-05-16T07:10:16.264Z,0
2023-05-16T07:15:16.307Z,0
2023-05-16T07:20:19.325Z,0
2023-05-16T07:25:19.239Z,0
2023-05-16T07:30:16.318Z,0
2023-05-16T07:35:19.283Z,0
2023-05-16T07:40:19.232Z,0
2023-05-16T07:45:19.293Z,0
2023-05-16T07:50:19.473Z,0
2023-05-16T07:55:19.227Z,0
2023-05-16T08:00:19.302Z,0
2023-05-16T08:05:19.391Z,0
2023-05-16T08:10:19.270Z,0
2023-05-16T08:15:19.288Z,0
2023-05-16T08:20:19.401Z,0
2023-05-16T08:25:19.246Z,0
2023-05-16T08:30:19.310Z,0
2023-05-16T08:35:19.251Z,0
2023-05-16T08:40:19.229Z,0
2023-05-16T08:45:19.329Z,0
2023-05-16T08:50:19.277Z,0
2023-05-16T08:55:19.281Z,0
2023-05-16T09:00:16.364Z,0
2023-05-16T09:05:19.301Z,0
2023-05-16T09:10:16.398Z,0
2023-05-16T09:15:19.331Z,0
2023-05-16T09:20:19.273Z,0
2023-05-16T09:25:29.199Z,0
2023-05-16T09:30:19.340Z,0
2023-05-16T09:35:27.193Z,0
2023-05-16T09:40:19.294Z,1
2023-05-16T09:45:19.312Z,6
2023-05-16T09:50:17.338Z,9
2023-05-16T09:55:19.286Z,11
2023-05-16T10:00:16.349Z,14
2023-05-16T10:05:19.336Z,17
2023-05-16T10:10:16.352Z,20
2023-05-16T10:15:19.363Z,24
2023-05-16T10:20:16.492Z,30
2023-05-16T10:25:19.296Z,34
2023-05-16T10:30:19.295Z,37
2023-05-16T10:35:19.334Z,39
2023-05-16T10:40:19.332Z,44
2023-05-16T10:45:19.325Z,51
2023-05-16T10:50:19.329Z,56
2023-05-16T10:55:19.290Z,63
2023-05-16T11:00:19.367Z,69
2023-05-16T11:05:19.389Z,77
2023-05-16T11:10:16.378Z,88
2023-05-16T11:15:16.421Z,96
2023-05-16T11:20:19.368Z,109
2023-05-16T11:25:19.600Z,109
2023-05-16T11:30:19.385Z,99
2023-05-16T11:35:16.201Z,107
2023-05-16T11:40:19.404Z,125
2023-05-16T11:45:19.338Z,134
2023-05-16T11:50:16.414Z,152
2023-05-16T11:55:28.314Z,139
2023-05-16T12:00:19.441Z,139
2023-05-16T12:05:16.497Z,146
2023-05-16T12:10:19.448Z,157
2023-05-16T12:15:16.232Z,176
2023-05-16T12:20:19.397Z,174
2023-05-16T12:25:19.395Z,172
2023-05-16T12:30:19.376Z,188
2023-05-16T12:35:16.432Z,190
2023-05-16T12:40:19.391Z,186
2023-05-16T12:45:19.361Z,189
2023-05-16T12:50:17.403Z,209
2023-05-16T12:55:16.406Z,201
2023-05-16T13:00:19.479Z,200
2023-05-16T13:05:19.540Z,242
2023-05-16T13:10:19.369Z,333
2023-05-16T13:15:19.399Z,300
2023-05-16T13:20:19.386Z,323
2023-05-16T13:25:16.474Z,353
2023-05-16T13:30:19.412Z,344
2023-05-16T13:35:19.588Z,347
2023-05-16T13:40:19.415Z,309
2023-05-16T13:45:19.407Z,332
2023-05-16T13:50:16.424Z,361
2023-05-16T13:55:19.476Z,363
2023-05-16T14:00:42.658Z,347
2023-05-16T14:05:19.433Z,309
2023-05-16T14:10:19.420Z,324
2023-05-16T14:15:16.441Z,288
2023-05-16T14:20:19.436Z,311
2023-05-16T14:25:19.483Z,311
2023-05-16T14:30:19.486Z,326
2023-05-16T14:35:16.472Z,355
2023-05-16T14:40:19.469Z,450
2023-05-16T14:45:19.439Z,543
2023-05-16T14:50:19.454Z,589
2023-05-16T14:55:19.448Z,648
2023-05-16T15:00:19.443Z,712
2023-05-16T15:05:19.548Z,672
2023-05-16T15:10:16.454Z,655
2023-05-16T15:15:16.790Z,566
2023-05-16T15:20:16.544Z,482
2023-05-16T15:25:16.509Z,672
2023-05-16T15:30:19.465Z,522
2023-05-16T15:35:19.605Z,713
2023-05-16T15:40:21.737Z,657
2023-05-16T15:45:19.455Z,691
2023-05-16T15:50:19.464Z,747
2023-05-16T15:55:19.440Z,695
2023-05-16T16:00:19.484Z,697
2023-05-16T16:05:19.486Z,734
2023-05-16T16:10:16.583Z,730
2023-05-16T16:15:19.540Z,727
2023-05-16T16:20:19.450Z,720
2023-05-16T16:25:16.702Z,720
2023-05-16T16:30:19.609Z,684
2023-05-16T16:35:19.482Z,736
2023-05-16T16:40:19.491Z,650
2023-05-16T16:45:21.341Z,711
2023-05-16T16:50:16.564Z,687
2023-05-16T16:55:19.529Z,681
2023-05-16T17:00:19.561Z,665
2023-05-16T17:05:19.530Z,721
2023-05-16T17:10:19.547Z,784
2023-05-16T17:15:16.521Z,771
2023-05-16T17:20:16.589Z,767
2023-05-16T17:25:16.525Z,771
2023-05-16T17:30:19.670Z,754
2023-05-16T17:35:19.558Z,769
2023-05-16T17:40:19.567Z,775
2023-05-16T17:45:19.490Z,785
2023-05-16T17:50:19.565Z,789
2023-05-16T17:55:16.535Z,786
2023-05-16T18:00:19.709Z,773
2023-05-16T18:05:16.428Z,755
2023-05-16T18:10:19.789Z,762
2023-05-16T18:15:19.548Z,754
2023-05-16T18:20:16.615Z,760
2023-05-16T18:25:19.592Z,741
2023-05-16T18:30:19.532Z,725
2023-05-16T18:35:19.504Z,720
2023-05-16T18:40:16.646Z,628
2023-05-16T18:45:19.767Z,158
2023-05-16T18:50:19.531Z,729
2023-05-16T18:55:16.606Z,142
2023-05-16T19:00:19.627Z,145
2023-05-16T19:05:19.963Z,170
2023-05-16T19:10:19.560Z,134
2023-05-16T19:15:19.567Z,126
2023-05-16T19:20:19.680Z,112
2023-05-16T19:25:16.479Z,120
2023-05-16T19:30:19.807Z,126
2023-05-16T19:35:16.640Z,146
2023-05-16T19:40:19.621Z,148
2023-05-16T19:45:19.589Z,162
2023-05-16T19:50:19.555Z,177
2023-05-16T19:55:19.588Z,213
2023-05-16T20:00:19.586Z,143
2023-05-16T20:05:16.774Z,129
2023-05-16T20:10:21.816Z,136
2023-05-16T20:15:16.599Z,126
2023-05-16T20:20:19.660Z,132
2023-05-16T20:25:19.643Z,123
2023-05-16T20:30:19.606Z,129
2023-05-16T20:35:19.629Z,128
2023-05-16T20:40:19.966Z,120
2023-05-16T20:45:19.754Z,124
2023-05-16T20:50:19.639Z,103
2023-05-16T20:55:19.594Z,94
2023-05-16T21:00:19.883Z,89
2023-05-16T21:05:25.210Z,101
2023-05-16T21:10:19.571Z,115
2023-05-16T21:15:21.657Z,105
2023-05-16T21:20:19.582Z,110
2023-05-16T21:25:19.641Z,98
2023-05-16T21:30:16.695Z,101
2023-05-16T21:35:16.653Z,99
2023-05-16T21:40:19.815Z,95
2023-05-16T21:45:19.707Z,84
2023-05-16T21:50:19.641Z,83
2023-05-16T21:55:19.644Z,88
2023-05-16T22:00:19.640Z,88
2023-05-16T22:05:19.657Z,75
2023-05-16T22:10:19.649Z,81
2023-05-16T22:15:19.618Z,79
2023-05-16T22:20:19.646Z,78
2023-05-16T22:25:19.644Z,70
2023-05-16T22:30:19.615Z,56
2023-05-16T22:35:21.235Z,54
2023-05-16T22:40:19.649Z,53
2023-05-16T22:45:16.704Z,51
2023-05-16T22:50:19.717Z,45
2023-05-16T22:55:19.744Z,39
2023-05-16T23:00:19.652Z,39
2023-05-16T23:05:19.673Z,34
2023-05-16T23:10:19.613Z,26
2023-05-16T23:15:16.681Z,24
2023-05-16T23:20:19.667Z,21
2023-05-16T23:25:16.705Z,19
2023-05-16T23:30:17.155Z,16
2023-05-16T23:35:19.654Z,13
2023-05-16T23:40:19.651Z,9
2023-05-16T23:45:19.638Z,5
2023-05-16T23:50:16.689Z,0
2023-05-16T23:55:16.766Z,0
